createdAt,value
2022-12-14T00:01:55.846Z,93171.69
2022-12-14T00:04:23.904Z,93175.13
2022-12-14T00:06:51.746Z,93182.41
2022-12-14T00:09:19.617Z,93183.63
2022-12-14T00:11:47.688Z,93180.19
2022-12-14T00:14:15.763Z,93189.88
2022-12-14T00:16:43.828Z,93181.81
2022-12-14T00:19:12.315Z,93184.63
2022-12-14T00:21:40.211Z,93189.25
2022-12-14T00:24:08.219Z,93185.03
2022-12-14T00:26:36.204Z,93192.31
2022-12-14T00:29:04.179Z,93198.16
2022-12-14T00:31:32.701Z,93208.06
2022-12-14T00:34:01.539Z,93199.16
2022-12-14T00:36:31.882Z,93197.38
2022-12-14T00:39:00.262Z,93193.09
2022-12-14T00:41:28.278Z,93196.34
2022-12-14T00:43:56.323Z,93192.50
2022-12-14T00:46:24.410Z,93207.88
2022-12-14T00:48:52.578Z,93192.91
2022-12-14T00:51:20.528Z,93196.75
2022-12-14T00:53:48.447Z,93187.47
2022-12-14T00:56:16.603Z,93174.53
2022-12-14T00:58:44.407Z,93191.91
2022-12-14T01:01:13.923Z,93193.31
2022-12-14T01:03:42.585Z,93201.19
2022-12-14T01:06:19.871Z,93203.81
2022-12-14T01:08:48.858Z,93194.09
2022-12-14T01:11:16.887Z,93183.78
2022-12-14T01:13:44.805Z,93183.81
2022-12-14T01:16:18.083Z,93190.50
2022-12-14T01:18:46.197Z,93176.34
2022-12-14T01:21:17.224Z,93184.81
2022-12-14T01:23:46.915Z,93194.53
2022-12-14T01:26:16.763Z,93196.72
2022-12-14T01:28:46.183Z,93207.63
2022-12-14T01:31:17.841Z,93198.75
2022-12-14T01:33:46.304Z,93201.19
2022-12-14T01:36:17.361Z,93197.53
2022-12-14T01:38:46.329Z,93197.75
2022-12-14T01:41:28.800Z,93197.94
2022-12-14T01:44:16.668Z,93187.63
2022-12-14T01:47:01.491Z,93193.91
2022-12-14T01:49:56.350Z,93175.72
2022-12-14T01:52:40.282Z,93136.91
2022-12-14T01:55:16.506Z,93171.69
2022-12-14T01:57:47.279Z,93169.06
2022-12-14T02:00:17.082Z,93162.97
2022-12-14T02:02:51.617Z,93165.41
2022-12-14T02:05:22.197Z,93163.22
2022-12-14T02:07:53.628Z,93169.06
2022-12-14T02:10:24.626Z,93174.47
2022-12-14T02:13:04.503Z,93164.97
2022-12-14T02:25:07.172Z,93161.13
2022-12-14T02:28:01.173Z,93134.28
2022-12-14T02:30:35.106Z,93156.13
2022-12-14T02:33:18.079Z,93153.44
2022-12-14T02:35:57.564Z,93150.19
2022-12-14T02:38:43.293Z,93150.44
2022-12-14T02:41:24.260Z,93154.06
2022-12-14T02:44:14.869Z,93156.06
2022-12-14T02:46:55.391Z,93156.91
2022-12-14T02:49:53.951Z,93149.25
2022-12-14T02:52:51.817Z,93139.78
2022-12-14T02:55:53.348Z,93141.97
2022-12-14T03:00:47.117Z,93133.84
2022-12-14T03:03:15.227Z,93137.72
2022-12-14T03:05:42.979Z,93130.44
2022-12-14T03:08:14.406Z,93145.19
2022-12-14T03:10:58.003Z,93146.00
2022-12-14T03:13:33.131Z,93152.47
2022-12-14T03:16:20.197Z,93154.66
2022-12-14T03:19:03.711Z,93149.22
2022-12-14T03:21:37.079Z,93152.44
2022-12-14T03:24:10.921Z,93150.81
2022-12-14T03:26:49.409Z,93146.59
2022-12-14T03:29:28.939Z,93146.81
2022-12-14T03:32:01.817Z,93146.81
2022-12-14T03:34:40.947Z,93135.09
2022-12-14T03:37:12.092Z,93127.81
2022-12-14T03:39:42.653Z,93138.91
2022-12-14T03:42:10.510Z,93137.31
2022-12-14T03:45:02.841Z,93148.63
2022-12-14T03:47:39.344Z,93135.91
2022-12-14T03:50:16.233Z,93151.00
2022-12-14T03:52:52.439Z,93157.28
2022-12-14T03:55:43.315Z,93154.28
2022-12-14T03:58:16.936Z,93151.66
2022-12-14T04:00:51.027Z,93144.19
2022-12-14T04:03:43.244Z,93147.41
2022-12-14T04:06:29.789Z,93153.00
2022-12-14T04:09:10.844Z,93150.38
2022-12-14T04:12:05.587Z,93154.38
2022-12-14T04:15:03.039Z,93160.63
2022-12-14T04:17:54.034Z,93140.28
2022-12-14T04:20:31.221Z,93146.34
2022-12-14T04:23:07.644Z,93144.75
2022-12-14T04:26:00.136Z,93152.03
2022-12-14T04:29:12.745Z,93148.97
2022-12-14T04:31:46.225Z,93154.06
2022-12-14T04:34:21.211Z,93151.66
2022-12-14T04:37:02.385Z,93147.97
2022-12-14T04:39:44.777Z,93150.63
2022-12-14T04:42:15.661Z,93158.31
2022-12-14T04:44:49.651Z,93164.63
2022-12-14T04:47:19.409Z,93159.56
2022-12-14T04:49:50.060Z,93167.25
2022-12-14T04:52:21.825Z,93169.00
2022-12-14T04:55:12.337Z,93145.81
2022-12-14T04:57:53.441Z,93166.22
2022-12-14T05:00:21.493Z,93167.03
2022-12-14T05:03:04.810Z,93166.03
2022-12-14T05:06:00.131Z,93169.44
2022-12-14T05:08:37.595Z,93168.63
2022-12-14T05:14:28.072Z,93165.41
2022-12-14T05:16:56.984Z,93166.03
2022-12-14T05:19:26.821Z,93169.06
2022-12-14T05:21:55.664Z,93169.66
2022-12-14T05:24:23.476Z,93171.28
2022-12-14T05:26:51.431Z,93172.47
2022-12-14T05:29:19.419Z,93169.63
2022-12-14T05:31:49.431Z,93172.59
2022-12-14T05:34:18.213Z,93179.91
2022-12-14T05:36:46.339Z,93181.34
2022-12-14T05:39:15.490Z,93183.59
2022-12-14T05:41:44.248Z,93189.22
2022-12-14T05:44:12.165Z,93191.63
2022-12-14T05:46:40.384Z,93202.94
2022-12-14T05:49:08.741Z,93211.13
2022-12-14T05:51:36.692Z,93217.75
2022-12-14T05:54:05.655Z,93223.06
2022-12-14T05:56:33.723Z,93218.63
2022-12-14T05:59:02.851Z,93214.00
2022-12-14T06:01:30.840Z,93210.19
2022-12-14T06:03:58.883Z,93206.16
2022-12-14T06:06:27.020Z,93206.56
2022-12-14T06:08:54.881Z,93197.25
2022-12-14T06:11:23.629Z,93198.03
2022-12-14T06:13:52.068Z,93191.19
2022-12-14T06:16:25.693Z,93204.50
2022-12-14T06:18:58.496Z,93206.31
2022-12-14T06:21:28.920Z,93203.88
2022-12-14T06:23:57.435Z,93202.84
2022-12-14T06:26:26.692Z,93212.75
2022-12-14T06:28:55.863Z,93199.56
2022-12-14T06:31:26.136Z,93202.63
2022-12-14T06:33:55.034Z,93217.16
2022-12-14T06:36:25.821Z,93219.34
2022-12-14T06:38:56.367Z,93242.66
2022-12-14T06:41:25.059Z,93240.34
2022-12-14T06:43:53.993Z,93243.38
2022-12-14T06:46:23.416Z,93240.09
2022-12-14T06:48:53.524Z,93250.56
2022-12-14T06:51:23.395Z,93246.63
2022-12-14T06:53:53.064Z,93245.69
2022-12-14T06:56:23.159Z,93240.47
2022-12-14T06:58:51.252Z,93238.63
2022-12-14T07:01:21.415Z,93237.34
2022-12-14T07:03:55.189Z,93239.19
2022-12-14T07:06:24.401Z,93231.59
2022-12-14T07:08:57.387Z,93236.88
2022-12-14T07:11:27.029Z,93214.03
2022-12-14T07:13:55.659Z,93219.47
2022-12-14T07:16:29.345Z,93215.38
2022-12-14T07:18:58.156Z,93218.16
2022-12-14T07:21:26.872Z,93223.00
2022-12-14T07:23:54.844Z,93245.72
2022-12-14T07:26:25.927Z,93247.47
2022-12-14T07:28:54.838Z,93255.84
2022-12-14T07:31:38.221Z,93253.88
2022-12-14T07:34:06.412Z,93253.69
2022-12-14T07:36:34.581Z,93251.50
2022-12-14T07:39:02.493Z,93250.69
2022-12-14T07:41:32.011Z,93257.78
2022-12-14T07:44:03.381Z,93249.47
2022-12-14T07:46:34.998Z,93248.84
2022-12-14T07:49:04.237Z,93254.00
2022-12-14T07:51:34.065Z,93258.28
2022-12-14T07:54:04.269Z,93257.84
2022-12-14T07:56:35.753Z,93275.41
2022-12-14T07:59:05.905Z,93290.19
2022-12-14T08:01:35.904Z,93277.84
2022-12-14T08:04:07.947Z,93279.13
2022-12-14T08:06:37.014Z,93265.22
2022-12-14T08:09:06.747Z,93265.16
2022-12-14T08:11:35.139Z,93269.78
2022-12-14T08:28:57.353Z,93279.94
2022-12-14T08:31:28.132Z,93279.34
2022-12-14T08:33:58.083Z,93275.41
2022-12-14T08:36:33.041Z,93275.91
2022-12-14T08:39:03.640Z,93276.84
2022-12-14T08:41:32.210Z,93277.34
2022-12-14T08:44:01.649Z,93275.75
2022-12-14T08:46:31.662Z,93278.59
2022-12-14T08:49:00.298Z,93290.72
2022-12-14T08:51:28.902Z,93281.22
2022-12-14T08:53:58.468Z,93271.09
2022-12-14T08:56:28.250Z,93265.44
2022-12-14T09:01:55.941Z,93262.63
2022-12-14T09:04:24.368Z,93262.44
2022-12-14T09:06:52.394Z,93262.81
2022-12-14T09:09:20.248Z,93250.03
2022-12-14T09:11:48.380Z,93260.66
2022-12-14T09:14:16.232Z,93263.13
2022-12-14T09:16:44.266Z,93259.84
2022-12-14T09:19:12.683Z,93249.25
2022-12-14T09:21:40.777Z,93252.44
2022-12-14T09:24:09.544Z,93253.56
2022-12-14T09:26:37.585Z,93243.91
2022-12-14T09:29:05.672Z,93243.97
2022-12-14T09:31:33.987Z,93237.47
2022-12-14T09:34:02.012Z,93249.66
2022-12-14T09:36:30.031Z,93243.44
2022-12-14T09:38:59.662Z,93234.00
2022-12-14T09:41:36.503Z,93245.16
2022-12-14T09:44:29.494Z,93247.09
2022-12-14T09:47:18.408Z,93243.41
2022-12-14T09:49:49.196Z,93234.59
2022-12-14T09:52:21.532Z,93241.28
2022-12-14T09:54:50.567Z,93231.03
2022-12-14T09:57:30.765Z,93227.88
2022-12-14T09:59:58.780Z,93224.06
2022-12-14T10:02:36.125Z,93232.38
2022-12-14T10:05:42.562Z,93231.28
2022-12-14T10:08:31.035Z,93228.06
2022-12-14T10:11:23.214Z,93226.25
2022-12-14T10:14:00.131Z,93228.06
2022-12-14T10:16:51.766Z,93219.00
2022-12-14T10:19:35.639Z,93228.25
2022-12-14T10:22:12.365Z,93220.56
2022-12-14T10:25:05.841Z,93215.53
2022-12-14T10:27:54.116Z,93175.13
2022-12-14T10:30:23.485Z,93197.75
2022-12-14T10:33:06.275Z,93188.06
2022-12-14T10:36:00.219Z,93183.41
2022-12-14T10:38:39.390Z,93159.59
2022-12-14T10:41:49.455Z,93173.28
2022-12-14T10:44:56.090Z,93176.25
2022-12-14T10:47:42.168Z,93175.25
2022-12-14T10:50:19.008Z,93173.72
2022-12-14T10:52:53.842Z,93174.28
2022-12-14T10:55:30.067Z,93162.97
2022-12-14T10:57:58.070Z,93157.16
2022-12-14T11:00:26.155Z,93158.34
2022-12-14T11:02:57.582Z,93149.44
2022-12-14T11:06:11.146Z,93159.75
2022-12-14T11:08:48.707Z,93151.25
2022-12-14T11:11:21.291Z,93152.25
2022-12-14T11:13:56.720Z,93158.50
2022-12-14T11:16:39.024Z,93160.16
2022-12-14T11:19:24.967Z,93168.44
2022-12-14T11:22:20.142Z,93162.38
2022-12-14T11:24:50.163Z,93148.38
2022-12-14T11:27:21.405Z,93149.72
2022-12-14T11:29:51.346Z,93147.19
2022-12-14T11:32:25.067Z,93138.75
2022-12-14T11:35:16.723Z,93131.94
2022-12-14T11:37:45.873Z,93136.09
2022-12-14T11:40:39.874Z,93088.47
2022-12-14T11:43:17.864Z,93121.06
2022-12-14T11:45:51.903Z,93118.28
2022-12-14T11:48:22.550Z,93116.47
2022-12-14T11:50:56.704Z,93112.03
2022-12-14T11:53:24.619Z,93114.69
2022-12-14T11:55:58.659Z,93125.59
2022-12-14T11:58:32.671Z,93113.28
2022-12-14T12:01:12.132Z,93129.22
2022-12-14T12:03:48.083Z,93129.63
2022-12-14T12:06:24.913Z,93119.22
2022-12-14T12:09:00.992Z,93125.72
2022-12-14T12:11:31.709Z,93123.34
2022-12-14T12:14:28.016Z,93122.56
2022-12-14T12:16:56.394Z,93129.03
2022-12-14T12:19:35.127Z,93125.03
2022-12-14T12:22:05.709Z,93125.41
2022-12-14T12:25:08.291Z,93127.22
2022-12-14T12:27:34.036Z,93116.44
2022-12-14T12:30:19.951Z,93113.22
2022-12-14T12:32:52.997Z,93110.00
2022-12-14T12:35:30.557Z,93109.81
2022-12-14T12:38:33.891Z,93097.34
2022-12-14T12:41:10.803Z,93111.47
2022-12-14T12:43:58.683Z,93123.13
2022-12-14T12:47:14.899Z,93127.16
2022-12-14T12:49:34.281Z,93119.00
2022-12-14T12:52:06.801Z,93124.66
2022-12-14T12:54:40.489Z,93133.34
2022-12-14T12:57:12.655Z,93133.41
2022-12-14T12:59:47.260Z,93128.69
2022-12-14T13:02:26.038Z,93133.31
2022-12-14T13:04:55.374Z,93133.97
2022-12-14T13:07:36.101Z,93100.47
2022-12-14T13:10:16.088Z,93111.38
2022-12-14T13:12:51.347Z,93119.69
2022-12-14T13:15:49.638Z,93126.22
2022-12-14T13:18:59.504Z,93126.63
2022-12-14T13:21:35.245Z,93132.06
2022-12-14T13:24:05.084Z,93135.94
2022-12-14T13:26:59.273Z,93142.97
2022-12-14T13:30:01.182Z,93140.94
2022-12-14T13:32:54.516Z,93139.13
2022-12-14T13:35:40.843Z,93146.59
2022-12-14T13:38:32.845Z,93142.97
2022-12-14T13:41:15.263Z,93147.66
2022-12-14T13:43:52.374Z,93142.00
2022-12-14T13:46:27.000Z,93134.50
2022-12-14T13:49:01.024Z,93126.59
2022-12-14T13:51:46.833Z,93117.28
2022-12-14T13:54:21.027Z,93131.84
2022-12-14T13:56:49.393Z,93134.06
2022-12-14T13:59:29.716Z,93133.06
2022-12-14T14:02:01.398Z,93128.00
2022-12-14T14:04:31.405Z,93115.84
2022-12-14T14:07:23.956Z,93104.13
2022-12-14T14:10:04.997Z,93096.28
2022-12-14T14:12:41.870Z,93086.59
2022-12-14T14:15:24.285Z,93090.22
2022-12-14T14:17:56.584Z,93084.00
2022-12-14T14:29:25.860Z,93096.75
2022-12-14T14:31:55.451Z,93102.81
2022-12-14T14:34:38.740Z,93089.09
2022-12-14T14:37:21.780Z,93085.44
2022-12-14T14:40:21.973Z,93089.50
2022-12-14T14:43:16.877Z,93077.19
2022-12-14T14:45:55.403Z,93078.19
2022-12-14T14:48:43.279Z,93087.28
2022-12-14T14:51:11.235Z,93085.25
2022-12-14T14:53:40.494Z,93084.88
2022-12-14T14:56:26.826Z,93085.88
2022-12-14T14:59:17.287Z,93079.41
2022-12-14T15:01:58.528Z,93086.06
2022-12-14T15:04:34.447Z,93087.69
2022-12-14T15:07:06.116Z,93093.75
2022-12-14T15:09:41.757Z,93083.25
2022-12-14T15:12:31.621Z,93090.50
2022-12-14T15:15:05.117Z,93097.19
2022-12-14T15:17:33.423Z,93090.31
2022-12-14T15:20:03.041Z,93085.25
2022-12-14T15:22:41.947Z,93093.34
2022-12-14T15:25:23.404Z,93099.00
2022-12-14T15:27:52.930Z,93092.94
2022-12-14T15:30:26.883Z,93091.34
2022-12-14T15:33:10.578Z,93079.44
2022-12-14T15:35:42.874Z,93075.38
2022-12-14T15:38:26.553Z,93081.84
2022-12-14T15:40:57.553Z,93071.34
2022-12-14T15:43:27.663Z,93069.53
2022-12-14T15:46:04.438Z,93077.59
2022-12-14T15:48:36.531Z,93070.13
2022-12-14T15:51:14.438Z,93069.94
2022-12-14T15:53:51.367Z,93062.88
2022-12-14T15:57:00.738Z,93068.69
2022-12-14T16:00:00.039Z,93078.16
2022-12-14T16:02:33.119Z,93081.59
2022-12-14T16:05:03.575Z,93087.06
2022-12-14T16:07:39.682Z,93090.53
2022-12-14T16:10:26.354Z,93091.31
2022-12-14T16:13:00.731Z,93088.06
2022-12-14T16:15:30.311Z,93108.06
2022-12-14T16:18:02.495Z,93101.63
2022-12-14T16:20:36.235Z,93106.06
2022-12-14T16:23:28.112Z,93095.78
2022-12-14T16:26:21.823Z,93095.53
2022-12-14T16:28:50.361Z,93093.13
2022-12-14T16:31:24.597Z,93084.84
2022-12-14T16:34:14.724Z,93073.53
2022-12-14T16:36:56.273Z,93053.16
2022-12-14T16:39:40.152Z,93071.13
2022-12-14T16:42:20.277Z,93078.81
2022-12-14T16:44:49.388Z,93084.66
2022-12-14T16:47:48.960Z,93076.16
2022-12-14T16:50:55.050Z,93065.44
2022-12-14T16:53:26.603Z,93076.75
2022-12-14T16:56:07.097Z,93079.56
2022-12-14T16:58:36.721Z,93062.78
2022-12-14T17:01:08.338Z,93051.47
2022-12-14T17:03:38.404Z,93058.75
2022-12-14T17:06:07.912Z,93063.78
2022-12-14T17:08:36.516Z,93060.97
2022-12-14T17:11:06.240Z,93052.28
2022-12-14T17:13:34.869Z,93062.19
2022-12-14T17:16:06.663Z,93068.00
2022-12-14T17:18:39.446Z,93045.25
2022-12-14T17:21:15.833Z,93050.44
2022-12-14T17:23:46.279Z,93069.06
2022-12-14T17:26:28.335Z,93082.84
2022-12-14T17:28:57.126Z,93083.28
2022-12-14T17:31:27.628Z,93085.69
2022-12-14T17:33:57.888Z,93077.00
2022-12-14T17:36:26.082Z,93081.63
2022-12-14T17:38:54.409Z,93083.84
2022-12-14T17:41:27.498Z,93082.84
2022-12-14T17:43:57.459Z,93079.63
2022-12-14T17:46:26.427Z,93081.84
2022-12-14T17:48:55.082Z,93074.38
2022-12-14T17:51:29.152Z,93065.91
2022-12-14T17:53:59.930Z,93070.13
2022-12-14T17:56:28.650Z,93063.06
2022-12-14T17:58:57.071Z,93049.94
2022-12-14T18:01:26.415Z,93048.72
2022-12-14T18:03:55.025Z,93044.25
2022-12-14T18:06:23.149Z,93039.06
2022-12-14T18:08:51.817Z,93036.63
2022-12-14T18:11:23.373Z,93026.31
2022-12-14T18:13:52.323Z,93019.84
2022-12-14T18:16:24.055Z,93002.31
2022-12-14T18:18:54.632Z,93020.69
2022-12-14T18:21:25.978Z,93032.59
2022-12-14T18:23:55.242Z,93035.63
2022-12-14T18:26:24.127Z,93028.97
2022-12-14T18:28:54.804Z,93028.16
2022-12-14T18:31:27.480Z,93023.91
2022-12-14T18:33:56.192Z,93000.50
2022-12-14T18:36:24.797Z,93027.53
2022-12-14T18:38:53.519Z,93022.28
2022-12-14T18:41:24.793Z,93014.03
2022-12-14T18:43:54.656Z,93012.00
2022-12-14T18:46:23.869Z,93015.22
2022-12-14T18:48:51.904Z,93003.13
2022-12-14T18:51:27.216Z,93011.56
2022-12-14T18:53:58.476Z,92981.34
2022-12-14T18:56:28.395Z,92997.44
2022-12-14T18:58:56.794Z,92994.59
2022-12-14T19:01:25.955Z,92997.59
2022-12-14T19:03:54.735Z,92992.56
2022-12-14T19:06:44.064Z,92986.09
2022-12-14T19:09:15.243Z,92974.41
2022-12-14T19:11:44.948Z,92959.84
2022-12-14T19:14:13.585Z,92958.06
2022-12-14T19:16:42.163Z,92952.19
2022-12-14T19:19:10.877Z,92936.78
2022-12-14T19:21:39.210Z,92931.53
2022-12-14T19:24:08.931Z,92917.00
2022-12-14T19:26:39.525Z,92919.63
2022-12-14T19:29:07.831Z,92940.78
2022-12-14T19:31:36.181Z,92925.25
2022-12-14T19:34:04.799Z,92934.28
2022-12-14T19:36:33.216Z,92930.81
2022-12-14T19:39:01.531Z,92939.00
2022-12-14T19:41:29.896Z,92929.88
2022-12-14T19:43:58.769Z,92930.69
2022-12-14T19:46:27.244Z,92931.13
2022-12-14T19:48:56.034Z,92920.00
2022-12-14T19:51:24.649Z,92915.19
2022-12-14T19:53:55.152Z,92903.94
2022-12-14T19:56:23.728Z,92901.84
2022-12-14T19:58:52.418Z,92903.25
2022-12-14T20:01:20.797Z,92891.72
2022-12-14T20:03:49.694Z,92891.72
2022-12-14T20:06:18.098Z,92899.28
2022-12-14T20:08:49.511Z,92888.50
2022-12-14T20:11:19.867Z,92896.38
2022-12-14T20:13:51.836Z,92887.47
2022-12-14T20:16:24.811Z,92884.97
2022-12-14T20:18:53.831Z,92877.53
2022-12-14T20:21:23.273Z,92870.69
2022-12-14T20:24:01.428Z,92875.38
2022-12-14T20:37:26.134Z,92839.44
2022-12-14T20:39:54.562Z,92835.50
2022-12-14T20:42:22.789Z,92826.75
2022-12-14T20:44:51.109Z,92830.00
2022-12-14T20:47:19.237Z,92819.63
2022-12-14T20:49:47.272Z,92821.56
2022-12-14T20:52:15.403Z,92823.41
2022-12-14T20:54:43.593Z,92805.81
2022-12-14T20:57:11.496Z,92805.16
2022-12-14T20:59:39.512Z,92787.97
2022-12-14T21:02:15.436Z,92790.56
2022-12-14T21:04:43.645Z,92781.81
2022-12-14T21:07:11.610Z,92794.00
2022-12-14T21:09:40.108Z,92789.13
2022-12-14T21:12:21.773Z,92784.00
2022-12-14T21:14:54.176Z,92778.38
2022-12-14T21:17:24.955Z,92766.31
2022-12-14T21:19:53.776Z,92757.22
2022-12-14T21:22:24.327Z,92747.50
2022-12-14T21:25:02.984Z,92746.66
2022-12-14T21:27:33.928Z,92731.44
2022-12-14T21:30:01.836Z,92727.75
2022-12-14T21:32:30.802Z,92713.00
2022-12-14T21:34:58.602Z,92722.09
2022-12-14T21:37:26.557Z,92718.09
2022-12-14T21:39:55.709Z,92713.38
2022-12-14T21:42:24.307Z,92716.50
2022-12-14T21:44:53.365Z,92723.78
2022-12-14T21:47:24.487Z,92719.16
2022-12-14T21:49:52.614Z,92719.13
2022-12-14T21:52:23.994Z,92727.81
2022-12-14T21:54:51.976Z,92712.41
2022-12-14T21:57:50.590Z,92714.69
2022-12-14T22:00:19.612Z,92708.91
2022-12-14T22:02:47.746Z,92726.50
2022-12-14T22:05:18.996Z,92707.31
2022-12-14T22:07:47.277Z,92718.09
2022-12-14T22:10:18.701Z,92695.06
2022-12-14T22:12:49.485Z,92704.31
2022-12-14T22:15:17.512Z,92698.75
2022-12-14T22:17:45.388Z,92704.09
2022-12-14T22:20:14.834Z,92702.56
2022-12-14T22:22:42.771Z,92704.16
2022-12-14T22:25:10.678Z,92715.28
2022-12-14T22:27:38.753Z,92714.34
2022-12-14T22:30:08.781Z,92708.81
2022-12-14T22:32:36.762Z,92698.59
2022-12-14T22:35:04.989Z,92697.09
2022-12-14T22:37:32.898Z,92682.06
2022-12-14T22:40:19.491Z,92685.56
2022-12-14T22:42:47.477Z,92676.97
2022-12-14T22:45:15.454Z,92684.13
2022-12-14T22:47:43.516Z,92670.41
2022-12-14T22:50:12.078Z,92658.09
2022-12-14T22:52:40.584Z,92661.63
2022-12-14T22:55:08.740Z,92646.81
2022-12-14T22:57:41.870Z,92644.84
2022-12-14T23:00:15.987Z,92631.56
2022-12-14T23:02:48.297Z,92629.91
2022-12-14T23:05:17.927Z,92640.50
2022-12-14T23:07:45.998Z,92642.00
2022-12-14T23:10:32.577Z,92633.34
2022-12-14T23:13:19.004Z,92644.44
2022-12-14T23:16:05.304Z,92627.56
2022-12-14T23:18:51.936Z,92632.94
2022-12-14T23:21:39.412Z,92629.13
2022-12-14T23:24:25.996Z,92609.53
2022-12-14T23:27:12.888Z,92599.00
2022-12-14T23:29:59.681Z,92614.94
2022-12-14T23:32:45.974Z,92619.53
2022-12-14T23:35:32.811Z,92619.44
2022-12-14T23:38:23.604Z,92628.03
2022-12-14T23:41:10.882Z,92616.47
2022-12-14T23:43:57.414Z,92604.50
2022-12-14T23:46:43.930Z,92601.28
2022-12-14T23:49:30.539Z,92593.19
2022-12-14T23:52:17.188Z,92596.84
2022-12-14T23:55:03.543Z,92608.78
2022-12-14T23:57:49.752Z,92628.16
